Middlebury, Connecticut
Current Conditions -  °F | °C
As of 2:35 AM on Sunday 23 Nov 2014 (Local Time) from KOXC Reporting Station
Overcast Overcast  
Wind Chill: 36°   Ceiling: 11000
Heat Index: 39°   Visibility: 10mi
Dew Point: 18°   Wind: 5mph
Humidity: 42%   Direction: 260°W
Pressure: 30.14"   Gusts: NA
Location:  41.53°N, 73.13°W
Report Text: KOXC 230735Z 26004KT 10SM OVC110 04/M08 A3014 RMK AO1
Loading
Personal Weather Stations






























Interactive Weather Map New forecast layout! Learn more

10-Day Weather Forecast

Advertisements
Track Severe Weather on mobile